createdAt,value
2018-06-01T00:00:37.364Z,0
2018-06-01T00:01:36.947Z,0
2018-06-01T00:02:36.925Z,0
2018-06-01T00:03:37.793Z,0
2018-06-01T00:04:38.237Z,0
2018-06-01T00:05:36.671Z,0
2018-06-01T00:06:37.892Z,0
2018-06-01T00:07:37.489Z,0
2018-06-01T00:08:58.671Z,0
2018-06-01T00:09:59.242Z,0
2018-06-01T00:10:59.155Z,0
2018-06-01T00:11:58.872Z,0
2018-06-01T00:12:58.806Z,0
2018-06-01T00:13:58.675Z,0
2018-06-01T00:14:59.594Z,0
2018-06-01T00:15:58.301Z,0
2018-06-01T00:16:59.240Z,0
2018-06-01T00:17:58.871Z,0
2018-06-01T00:18:58.512Z,0
2018-06-01T00:19:59.070Z,0
2018-06-01T00:21:42.235Z,0
2018-06-01T00:22:42.934Z,0
2018-06-01T00:23:42.799Z,0
2018-06-01T00:25:04.467Z,0
2018-06-01T00:26:05.219Z,0
2018-06-01T00:27:04.819Z,0
2018-06-01T00:28:05.131Z,0
2018-06-01T00:29:04.652Z,0
2018-06-01T00:30:04.320Z,0
2018-06-01T00:31:27.815Z,0
2018-06-01T00:32:27.767Z,0
2018-06-01T00:33:28.373Z,0
2018-06-01T00:34:28.397Z,0
2018-06-01T00:35:28.074Z,0
2018-06-01T00:36:27.511Z,0
2018-06-01T00:37:28.952Z,0
2018-06-01T00:38:27.590Z,0
2018-06-01T00:39:28.172Z,0
2018-06-01T00:40:27.969Z,0
2018-06-01T00:41:27.421Z,0
2018-06-01T00:42:28.086Z,0
2018-06-01T00:43:27.808Z,0
2018-06-01T00:44:27.505Z,0
2018-06-01T00:45:28.162Z,0
2018-06-01T00:46:27.611Z,0
2018-06-01T00:47:28.173Z,0
2018-06-01T00:48:27.965Z,0
2018-06-01T00:49:27.905Z,0
2018-06-01T00:50:27.431Z,0
2018-06-01T00:51:28.326Z,0
2018-06-01T00:52:28.211Z,0
2018-06-01T00:53:27.892Z,0
2018-06-01T00:54:27.918Z,0
2018-06-01T00:55:27.871Z,0
2018-06-01T00:56:49.299Z,0
2018-06-01T00:57:50.164Z,0
2018-06-01T00:59:11.749Z,0
2018-06-01T01:00:12.578Z,0
2018-06-01T01:01:12.381Z,0
2018-06-01T01:02:12.151Z,0
2018-06-01T01:03:12.572Z,0
2018-06-01T01:04:13.763Z,0
2018-06-01T01:05:13.715Z,0
2018-06-01T01:06:12.215Z,0
2018-06-01T01:07:11.944Z,0
2018-06-01T01:08:12.258Z,0
2018-06-01T01:09:11.999Z,0
2018-06-01T01:10:11.991Z,0
2018-06-01T01:11:12.462Z,0
2018-06-01T01:12:11.884Z,0
2018-06-01T01:13:11.814Z,0
2018-06-01T01:14:11.533Z,0
2018-06-01T01:15:13.575Z,0
2018-06-01T01:16:12.021Z,0
2018-06-01T01:17:11.983Z,0
2018-06-01T01:18:33.562Z,0
2018-06-01T01:19:56.116Z,0
2018-06-01T01:20:57.022Z,0
2018-06-01T01:21:56.934Z,0
2018-06-01T01:22:56.675Z,0
2018-06-01T01:23:56.528Z,0
2018-06-01T01:24:55.966Z,0
2018-06-01T01:25:56.761Z,0
2018-06-01T01:26:56.614Z,0
2018-06-01T01:27:56.499Z,0
2018-06-01T01:28:55.981Z,0
2018-06-01T01:29:56.683Z,0
2018-06-01T01:30:56.338Z,0
2018-06-01T01:31:56.012Z,0
2018-06-01T01:32:57.127Z,0
2018-06-01T01:33:57.188Z,0
2018-06-01T01:34:56.808Z,0
2018-06-01T01:35:56.297Z,0
2018-06-01T01:36:56.678Z,0
2018-06-01T01:37:56.036Z,0
2018-06-01T01:38:56.792Z,0
2018-06-01T01:39:56.671Z,0
2018-06-01T01:40:56.218Z,0
2018-06-01T01:41:56.233Z,0
2018-06-01T01:42:56.052Z,0
2018-06-01T01:43:56.690Z,0
2018-06-01T01:44:56.469Z,0
2018-06-01T01:45:56.454Z,0
2018-06-01T01:46:55.882Z,0
2018-06-01T01:47:56.879Z,0
2018-06-01T01:48:56.479Z,0
2018-06-01T01:49:56.051Z,0
2018-06-01T01:50:56.793Z,0
2018-06-01T01:51:56.833Z,0
2018-06-01T01:52:56.773Z,0
2018-06-01T01:53:56.745Z,0
2018-06-01T01:54:56.475Z,0
2018-06-01T01:55:56.456Z,0
2018-06-01T01:56:56.937Z,0
2018-06-01T01:57:56.410Z,0
2018-06-01T01:58:56.065Z,0
2018-06-01T01:59:56.782Z,0
2018-06-01T02:00:56.451Z,0
2018-06-01T02:01:56.458Z,0
2018-06-01T02:02:56.221Z,0
2018-06-01T02:03:57.018Z,0
2018-06-01T02:04:56.819Z,0
2018-06-01T02:06:18.256Z,0
2018-06-01T02:07:19.228Z,0
2018-06-01T02:08:19.189Z,0
2018-06-01T02:09:18.807Z,0
2018-06-01T02:10:18.557Z,0
2018-06-01T02:11:18.856Z,0
2018-06-01T02:12:18.881Z,0
2018-06-01T02:13:18.335Z,0
2018-06-01T02:15:03.284Z,0
2018-06-01T02:16:03.332Z,0
2018-06-01T02:17:02.896Z,0
2018-06-01T02:18:03.653Z,0
2018-06-01T02:19:03.230Z,0
2018-06-01T02:20:04.055Z,0
2018-06-01T02:21:25.429Z,0
2018-06-01T02:22:26.277Z,0
2018-06-01T02:23:26.125Z,0
2018-06-01T02:24:25.889Z,0
2018-06-01T02:25:25.656Z,0
2018-06-01T02:26:25.356Z,0
2018-06-01T02:27:26.288Z,0
2018-06-01T02:28:26.231Z,0
2018-06-01T02:29:26.027Z,0
2018-06-01T02:30:25.826Z,0
2018-06-01T02:31:25.561Z,0
2018-06-01T02:32:25.342Z,0
2018-06-01T03:53:38.100Z,22
2018-06-01T03:54:38.914Z,22
2018-06-01T03:55:38.665Z,23
2018-06-01T03:57:01.529Z,26
2018-06-01T03:58:01.675Z,27
2018-06-01T03:59:01.495Z,28
2018-06-01T04:00:01.593Z,29
2018-06-01T04:01:01.622Z,30
2018-06-01T04:02:01.492Z,31
2018-06-01T04:03:01.694Z,32
2018-06-01T04:04:01.287Z,33
2018-06-01T04:05:01.488Z,35
2018-06-01T04:06:01.331Z,35
2018-06-01T04:07:02.417Z,36
2018-06-01T04:08:01.571Z,37
2018-06-01T04:09:01.465Z,38
2018-06-01T04:10:14.757Z,39
2018-06-01T04:11:02.065Z,40
2018-06-01T04:12:01.663Z,41
2018-06-01T04:13:01.303Z,42
2018-06-01T04:14:02.082Z,43
2018-06-01T04:15:02.375Z,43
2018-06-01T04:16:01.259Z,44
2018-06-01T04:17:02.350Z,46
2018-06-01T04:18:02.211Z,47
2018-06-01T04:19:02.253Z,48
2018-06-01T04:20:02.200Z,50
2018-06-01T04:21:02.098Z,52
2018-06-01T04:22:02.207Z,53
2018-06-01T04:23:02.211Z,55
2018-06-01T04:24:02.362Z,56
2018-06-01T04:25:02.206Z,58
2018-06-01T04:26:02.204Z,59
2018-06-01T04:27:02.467Z,61
2018-06-01T04:28:01.374Z,62
2018-06-01T04:29:23.215Z,64
2018-06-01T04:30:23.167Z,65
2018-06-01T04:31:24.179Z,66
2018-06-01T04:32:22.957Z,67
2018-06-01T04:33:23.737Z,68
2018-06-01T04:34:23.694Z,69
2018-06-01T04:35:23.594Z,70
2018-06-01T04:36:23.667Z,72
2018-06-01T04:37:23.713Z,72
2018-06-01T04:38:23.781Z,73
2018-06-01T04:39:23.997Z,74
2018-06-01T04:40:24.217Z,76
2018-06-01T04:41:23.265Z,78
2018-06-01T04:42:24.459Z,79
2018-06-01T04:43:23.445Z,79
2018-06-01T04:44:23.549Z,79
2018-06-01T04:45:23.556Z,80
2018-06-01T04:46:23.742Z,82
2018-06-01T04:47:23.916Z,85
2018-06-01T04:48:23.891Z,85
2018-06-01T04:49:23.891Z,85
2018-06-01T04:50:24.769Z,88
2018-06-01T04:51:24.015Z,91
2018-06-01T04:52:24.189Z,90
2018-06-01T04:53:24.199Z,90
2018-06-01T04:54:23.729Z,89
2018-06-01T04:55:24.485Z,87
2018-06-01T04:56:23.708Z,84
2018-06-01T04:57:28.198Z,80
2018-06-01T04:58:23.464Z,80
2018-06-01T04:59:24.232Z,80
2018-06-01T05:00:23.417Z,84
2018-06-01T05:01:24.527Z,87
2018-06-01T05:02:24.126Z,90
2018-06-01T05:03:26.658Z,95
2018-06-01T05:04:26.016Z,96
2018-06-01T05:05:23.486Z,99
2018-06-01T05:06:23.456Z,103
2018-06-01T05:07:23.460Z,104
2018-06-01T05:08:24.395Z,105
2018-06-01T05:09:23.734Z,105
2018-06-01T05:10:25.530Z,102
2018-06-01T05:11:57.045Z,102
2018-06-01T05:12:58.352Z,99
2018-06-01T05:13:58.005Z,97
2018-06-01T05:14:58.129Z,98
2018-06-01T05:15:57.421Z,101
2018-06-01T05:16:57.304Z,104
2018-06-01T05:17:57.881Z,108
2018-06-01T05:18:57.885Z,109
2018-06-01T05:19:57.748Z,111
2018-06-01T05:20:57.525Z,114
2018-06-01T05:21:57.541Z,115
2018-06-01T05:22:57.602Z,115
2018-06-01T05:23:57.571Z,117
2018-06-01T05:24:57.447Z,115
2018-06-01T05:25:57.781Z,113
2018-06-01T05:26:57.693Z,111
2018-06-01T05:27:58.638Z,110
2018-06-01T05:28:59.208Z,107
2018-06-01T05:30:20.415Z,102
2018-06-01T05:31:25.337Z,97
2018-06-01T05:32:20.410Z,89
2018-06-01T05:33:20.724Z,83
2018-06-01T05:34:21.032Z,80
2018-06-01T05:35:20.770Z,76
2018-06-01T05:36:43.023Z,75
2018-06-01T05:37:43.124Z,79
2018-06-01T05:38:42.923Z,82
2018-06-01T05:39:42.643Z,76
2018-06-01T05:40:42.566Z,73
2018-06-01T05:41:43.278Z,74
2018-06-01T05:43:26.975Z,80
2018-06-01T05:44:27.910Z,84
2018-06-01T05:45:27.102Z,90
2018-06-01T05:46:26.946Z,97
2018-06-01T05:47:26.863Z,103
2018-06-01T05:48:29.004Z,115
2018-06-01T05:49:27.901Z,126
2018-06-01T05:50:27.236Z,137
2018-06-01T05:51:27.314Z,144
2018-06-01T05:52:26.397Z,148
2018-06-01T05:53:26.736Z,146
2018-06-01T05:54:49.150Z,159
2018-06-01T05:56:02.220Z,161
2018-06-01T05:57:25.946Z,185
2018-06-01T05:58:26.330Z,186
2018-06-01T05:59:26.567Z,185
2018-06-01T06:00:26.757Z,185
2018-06-01T06:01:26.438Z,186
2018-06-01T06:02:26.676Z,189
2018-06-01T06:03:26.740Z,191
2018-06-01T06:04:25.976Z,194
2018-06-01T06:05:25.807Z,194
2018-06-01T06:06:25.777Z,194
2018-06-01T06:07:26.667Z,193
2018-06-01T06:08:26.711Z,192
2018-06-01T06:09:25.714Z,192
2018-06-01T06:10:26.406Z,193
2018-06-01T06:11:26.058Z,194
2018-06-01T06:12:26.152Z,200
2018-06-01T06:13:26.230Z,207
2018-06-01T06:14:28.687Z,206
2018-06-01T06:15:26.608Z,211
2018-06-01T06:16:47.812Z,225
2018-06-01T06:17:48.504Z,235
2018-06-01T06:18:48.339Z,241
2018-06-01T06:19:48.330Z,222
2018-06-01T06:20:48.930Z,208
2018-06-01T06:21:47.737Z,205
2018-06-01T06:22:48.774Z,207
2018-06-01T06:23:48.563Z,205
2018-06-01T06:24:49.225Z,200
2018-06-01T06:26:31.379Z,201
2018-06-01T06:27:31.276Z,203
2018-06-01T06:28:32.298Z,206
2018-06-01T06:29:53.032Z,204
2018-06-01T06:30:55.328Z,212
2018-06-01T06:31:53.504Z,216
2018-06-01T06:32:53.175Z,220
2018-06-01T06:33:53.854Z,223
2018-06-01T06:35:18.620Z,229
2018-06-01T06:36:40.304Z,243
2018-06-01T06:37:41.399Z,257
2018-06-01T06:38:40.456Z,279
2018-06-01T06:39:40.816Z,285
2018-06-01T06:40:41.450Z,283
2018-06-01T06:42:04.261Z,291
2018-06-01T06:43:25.823Z,277
2018-06-01T06:44:26.678Z,268
2018-06-01T06:45:26.714Z,273
2018-06-01T06:46:26.078Z,284
2018-06-01T06:47:48.277Z,306
2018-06-01T06:48:47.996Z,316
2018-06-01T06:50:11.226Z,316
2018-06-01T06:51:11.006Z,325
2018-06-01T06:52:33.798Z,318
2018-06-01T06:54:16.173Z,327
2018-06-01T06:55:16.754Z,330
2018-06-01T06:56:40.356Z,309
2018-06-01T06:57:41.017Z,295
2018-06-01T06:58:41.239Z,312
2018-06-01T06:59:41.265Z,299
2018-06-01T07:00:40.331Z,286
2018-06-01T07:01:41.158Z,300
2018-06-01T07:02:40.765Z,287
2018-06-01T07:03:41.115Z,286
2018-06-01T07:04:41.057Z,288
2018-06-01T07:05:41.491Z,277
2018-06-01T07:06:41.152Z,262
2018-06-01T07:07:41.153Z,264
2018-06-01T07:08:39.974Z,266
2018-06-01T07:10:02.296Z,250
2018-06-01T07:11:03.203Z,248
2018-06-01T07:12:02.950Z,246
2018-06-01T07:13:04.256Z,244
2018-06-01T07:14:02.930Z,249
2018-06-01T07:15:04.334Z,251
2018-06-01T07:16:03.498Z,252
2018-06-01T07:17:04.680Z,261
2018-06-01T07:18:03.320Z,266
2018-06-01T07:19:31.407Z,262
2018-06-01T07:20:49.110Z,261
2018-06-01T07:22:11.602Z,252
2018-06-01T07:23:15.497Z,244
2018-06-01T07:24:34.422Z,240
2018-06-01T07:25:35.348Z,244
2018-06-01T07:26:34.721Z,241
2018-06-01T07:27:35.655Z,243
2018-06-01T07:28:57.101Z,244
2018-06-01T07:29:58.177Z,253
2018-06-01T07:30:57.345Z,257
2018-06-01T07:31:57.707Z,265
2018-06-01T07:32:58.083Z,255
2018-06-01T07:33:58.565Z,260
2018-06-01T07:34:57.563Z,259
2018-06-01T07:35:57.512Z,272
2018-06-01T07:36:57.399Z,275
2018-06-01T07:37:58.397Z,289
2018-06-01T07:38:57.371Z,286
2018-06-01T07:39:57.282Z,288
2018-06-01T07:40:57.516Z,287
2018-06-01T07:41:57.671Z,288
2018-06-01T07:43:20.181Z,292
2018-06-01T07:44:20.179Z,297
2018-06-01T07:45:20.957Z,300
2018-06-01T07:46:19.716Z,305
2018-06-01T07:47:19.578Z,310
2018-06-01T07:48:40.665Z,319
2018-06-01T07:49:42.166Z,326
2018-06-01T07:50:41.229Z,337
2018-06-01T07:51:41.523Z,341
2018-06-01T07:52:41.372Z,345
2018-06-01T07:54:02.752Z,346
2018-06-01T07:55:03.867Z,357
2018-06-01T07:56:03.637Z,355
2018-06-01T07:57:03.701Z,399
2018-06-01T07:58:27.475Z,988
2018-06-01T07:59:27.449Z,751
2018-06-01T08:00:27.976Z,626
2018-06-01T08:02:14.157Z,643
2018-06-01T08:03:15.223Z,577
2018-06-01T08:04:14.248Z,520
2018-06-01T08:05:14.469Z,475
2018-06-01T08:06:14.151Z,500
2018-06-01T08:07:15.082Z,550
2018-06-01T08:08:15.883Z,567
2018-06-01T08:09:15.450Z,560
2018-06-01T08:10:14.506Z,567
2018-06-01T08:11:36.125Z,565
2018-06-01T08:12:36.373Z,565
2018-06-01T08:13:36.373Z,553
2018-06-01T08:14:36.353Z,548
2018-06-01T08:15:36.461Z,529
2018-06-01T08:16:36.776Z,503
2018-06-01T08:17:37.000Z,467
2018-06-01T08:18:58.169Z,409
2018-06-01T08:19:58.269Z,369
2018-06-01T08:20:58.427Z,334
2018-06-01T08:21:58.725Z,322
2018-06-01T08:22:58.694Z,318
2018-06-01T08:23:58.662Z,271
2018-06-01T08:24:58.337Z,264
2018-06-01T08:25:58.165Z,248
2018-06-01T08:26:58.536Z,229
2018-06-01T08:27:58.518Z,222
2018-06-01T08:28:58.437Z,221
2018-06-01T08:29:58.619Z,223
2018-06-01T08:30:58.751Z,225
2018-06-01T08:31:58.732Z,235
2018-06-01T08:32:58.843Z,241
2018-06-01T08:33:57.918Z,254
2018-06-01T08:34:58.637Z,272
2018-06-01T08:35:58.329Z,276
2018-06-01T08:36:59.338Z,288
2018-06-01T08:37:58.305Z,303
2018-06-01T08:38:58.332Z,321
2018-06-01T08:39:58.127Z,376
2018-06-01T08:41:21.645Z,510
2018-06-01T08:42:23.345Z,518
2018-06-01T08:43:22.328Z,534
2018-06-01T08:44:44.118Z,541
2018-06-01T08:46:05.806Z,538
2018-06-01T08:47:06.823Z,513
2018-06-01T08:48:05.907Z,495
2018-06-01T08:49:06.316Z,302
2018-06-01T08:50:06.029Z,267
2018-06-01T08:51:05.896Z,296
2018-06-01T08:52:28.404Z,370
2018-06-01T08:53:29.257Z,531
2018-06-01T08:54:51.370Z,551
2018-06-01T08:55:52.449Z,530
2018-06-01T08:56:52.518Z,527
2018-06-01T08:57:51.426Z,552
2018-06-01T08:59:14.034Z,554
2018-06-01T09:00:15.135Z,577
2018-06-01T09:01:15.101Z,581
2018-06-01T09:02:14.143Z,563
2018-06-01T09:03:14.893Z,544
2018-06-01T09:04:14.894Z,527
2018-06-01T09:05:14.709Z,540
2018-06-01T09:06:36.557Z,480
2018-06-01T09:07:57.971Z,413
2018-06-01T09:08:59.585Z,472
2018-06-01T09:09:58.348Z,548
2018-06-01T09:10:58.355Z,402
2018-06-01T09:11:58.374Z,323
2018-06-01T09:12:58.660Z,328
2018-06-01T09:13:58.937Z,326
2018-06-01T09:15:00.172Z,337
2018-06-01T09:15:58.081Z,348
2018-06-01T09:16:57.921Z,371
2018-06-01T09:17:59.876Z,354
2018-06-01T09:19:01.065Z,321
2018-06-01T09:20:44.176Z,276
2018-06-01T09:21:45.432Z,263
2018-06-01T09:22:44.294Z,258
2018-06-01T09:24:06.022Z,259
2018-06-01T09:25:06.975Z,268
2018-06-01T09:26:06.027Z,282
2018-06-01T09:27:05.861Z,287
2018-06-01T09:28:07.156Z,289
2018-06-01T09:29:06.294Z,297
2018-06-01T09:30:06.493Z,308
2018-06-01T09:31:07.094Z,318
2018-06-01T09:32:05.999Z,330
2018-06-01T09:33:30.172Z,360
2018-06-01T09:34:31.094Z,393
2018-06-01T09:35:30.995Z,452
2018-06-01T09:36:31.601Z,521
2018-06-01T09:37:30.659Z,501
2018-06-01T09:38:30.413Z,422
2018-06-01T09:39:30.557Z,399
2018-06-01T09:40:30.309Z,377
2018-06-01T09:41:31.269Z,354
2018-06-01T09:42:52.711Z,304
2018-06-01T09:43:53.747Z,272
2018-06-01T09:45:15.373Z,250
2018-06-01T09:46:16.429Z,247
2018-06-01T09:47:38.110Z,258
2018-06-01T09:48:39.109Z,264
2018-06-01T09:50:02.733Z,255
2018-06-01T09:51:27.552Z,245
2018-06-01T09:52:27.703Z,236
2018-06-01T09:53:27.451Z,227
2018-06-01T09:54:27.765Z,219
2018-06-01T09:55:28.146Z,214
2018-06-01T09:56:27.380Z,214
2018-06-01T09:57:51.421Z,219
2018-06-01T09:59:14.586Z,228
2018-06-01T10:00:14.411Z,264
2018-06-01T10:01:15.438Z,241
2018-06-01T10:02:37.627Z,251
2018-06-01T10:03:37.542Z,250
2018-06-01T10:05:44.539Z,306
2018-06-01T10:06:45.662Z,333
2018-06-01T10:07:44.759Z,323
2018-06-01T10:08:45.959Z,405
2018-06-01T10:09:45.013Z,348
2018-06-01T10:10:45.017Z,500
2018-06-01T10:11:45.104Z,449
2018-06-01T10:12:56.019Z,575
2018-06-01T10:13:45.036Z,506
2018-06-01T10:14:45.227Z,352
2018-06-01T10:15:45.370Z,317
2018-06-01T10:16:45.392Z,307
2018-06-01T10:18:29.143Z,437
2018-06-01T10:19:29.119Z,477
2018-06-01T10:20:30.355Z,663
2018-06-01T10:21:30.124Z,667
2018-06-01T10:22:29.598Z,657
2018-06-01T10:23:30.083Z,656
2018-06-01T10:24:29.731Z,673
2018-06-01T10:25:29.865Z,692
2018-06-01T10:26:29.716Z,677
2018-06-01T10:27:29.464Z,660
2018-06-01T10:28:52.339Z,654
2018-06-01T10:29:51.901Z,639
2018-06-01T10:30:52.493Z,654
2018-06-01T10:31:52.030Z,666
2018-06-01T10:33:18.175Z,680
2018-06-01T10:34:20.672Z,640
2018-06-01T10:35:20.580Z,630
2018-06-01T10:36:17.512Z,603
2018-06-01T10:37:17.625Z,616
2018-06-01T10:38:18.787Z,657
2018-06-01T10:39:18.013Z,692
2018-06-01T10:40:16.933Z,715
2018-06-01T10:41:18.023Z,696
2018-06-01T10:42:17.044Z,681
2018-06-01T10:43:17.325Z,557
2018-06-01T10:44:17.563Z,449
2018-06-01T10:45:19.113Z,400
2018-06-01T10:46:17.161Z,375
2018-06-01T10:47:17.287Z,360
2018-06-01T10:48:19.534Z,352
2018-06-01T10:49:17.544Z,354
2018-06-01T10:50:18.664Z,380
2018-06-01T10:51:17.683Z,467
2018-06-01T10:52:17.934Z,453
2018-06-01T10:53:17.927Z,399
2018-06-01T10:54:19.345Z,369
2018-06-01T10:55:17.940Z,365
2018-06-01T10:57:04.020Z,509
2018-06-01T10:58:05.023Z,486
2018-06-01T10:59:04.617Z,498
2018-06-01T11:00:04.493Z,676
2018-06-01T11:01:04.846Z,687
2018-06-01T11:02:05.051Z,721
2018-06-01T11:03:27.971Z,691
2018-06-01T11:04:28.039Z,643
2018-06-01T11:05:28.660Z,447
2018-06-01T11:07:16.828Z,359
2018-06-01T11:08:18.615Z,331
2018-06-01T11:09:17.588Z,316
2018-06-01T11:10:17.666Z,306
2018-06-01T11:11:17.669Z,289
2018-06-01T11:12:17.555Z,256
2018-06-01T11:13:17.760Z,232
2018-06-01T11:14:17.738Z,214
2018-06-01T11:15:16.949Z,202
2018-06-01T11:16:17.056Z,189
2018-06-01T11:17:17.197Z,180
2018-06-01T11:18:17.998Z,175
2018-06-01T11:19:17.729Z,178
2018-06-01T11:20:16.943Z,185
2018-06-01T11:21:17.139Z,186
2018-06-01T11:22:17.406Z,183
2018-06-01T11:23:17.626Z,177
2018-06-01T11:24:19.240Z,167
2018-06-01T11:26:02.723Z,151
2018-06-01T11:27:03.654Z,142
2018-06-01T11:28:02.442Z,135
2018-06-01T11:29:03.507Z,129
2018-06-01T11:30:02.394Z,123
2018-06-01T11:31:03.211Z,117
2018-06-01T11:32:04.405Z,110
2018-06-01T11:33:05.328Z,104
2018-06-01T11:34:03.440Z,97
2018-06-01T11:35:03.359Z,94
2018-06-01T11:36:03.192Z,93
2018-06-01T11:37:02.933Z,94
2018-06-01T11:38:27.180Z,93
2018-06-01T11:39:27.332Z,93
2018-06-01T11:40:27.211Z,93
2018-06-01T11:41:27.039Z,91
2018-06-01T11:42:27.395Z,89
2018-06-01T11:43:49.156Z,86
2018-06-01T11:44:50.081Z,84
2018-06-01T11:45:49.845Z,83
2018-06-01T11:46:50.196Z,82
2018-06-01T11:47:50.068Z,80
2018-06-01T11:48:49.828Z,79
2018-06-01T11:49:49.642Z,77
2018-06-01T11:50:50.601Z,74
2018-06-01T11:52:11.774Z,73
2018-06-01T11:53:12.235Z,72
2018-06-01T11:54:12.335Z,71
2018-06-01T11:55:12.432Z,71
2018-06-01T11:56:35.642Z,71
2018-06-01T11:57:34.667Z,71
2018-06-01T11:58:58.937Z,73
2018-06-01T11:59:59.177Z,74
2018-06-01T12:01:00.085Z,76
2018-06-01T12:02:01.291Z,78
2018-06-01T12:03:00.379Z,80
2018-06-01T12:03:59.152Z,84
2018-06-01T12:04:59.088Z,88
2018-06-01T12:06:22.908Z,93
2018-06-01T12:07:23.903Z,97
2018-06-01T12:08:24.237Z,101
2018-06-01T12:09:23.601Z,106
2018-06-01T12:10:49.150Z,112
2018-06-01T12:11:48.057Z,119
2018-06-01T12:12:48.922Z,125
2018-06-01T12:13:48.749Z,131
2018-06-01T12:14:49.221Z,140
2018-06-01T12:15:48.377Z,148
2018-06-01T12:16:49.965Z,158
2018-06-01T12:17:48.095Z,169
2018-06-01T12:18:48.519Z,181
2018-06-01T12:19:48.576Z,193
2018-06-01T12:20:48.652Z,205
2018-06-01T12:22:12.849Z,220
2018-06-01T12:23:36.002Z,225
2018-06-01T12:24:36.927Z,231
2018-06-01T12:25:36.257Z,232
2018-06-01T12:26:36.449Z,235
2018-06-01T12:27:35.620Z,240
2018-06-01T12:28:41.423Z,246
2018-06-01T12:29:35.660Z,254
2018-06-01T12:30:36.464Z,261
2018-06-01T12:31:36.086Z,263
2018-06-01T12:32:36.188Z,268
2018-06-01T12:33:36.745Z,277
2018-06-01T12:34:36.480Z,268
2018-06-01T12:35:35.540Z,268
2018-06-01T12:36:35.669Z,273
2018-06-01T12:38:00.792Z,284
2018-06-01T12:38:59.280Z,291
2018-06-01T12:39:58.165Z,290
2018-06-01T12:40:58.348Z,294
2018-06-01T12:41:58.332Z,300
2018-06-01T12:42:58.250Z,314
2018-06-01T12:43:58.184Z,330
2018-06-01T12:44:59.227Z,344
2018-06-01T12:45:58.297Z,368
2018-06-01T12:46:59.322Z,434
2018-06-01T12:47:58.384Z,513
2018-06-01T12:48:58.427Z,506
2018-06-01T12:49:58.571Z,523
2018-06-01T12:51:01.402Z,529
2018-06-01T12:51:59.132Z,462
2018-06-01T12:53:42.047Z,589
2018-06-01T12:55:04.470Z,577
2018-06-01T12:56:05.995Z,611
2018-06-01T12:57:04.421Z,508
2018-06-01T12:58:05.042Z,712
2018-06-01T13:00:16.189Z,658
2018-06-01T13:02:01.810Z,726
2018-06-01T13:03:38.742Z,818
2018-06-01T13:04:08.227Z,789
2018-06-01T13:05:26.138Z,427
2018-06-01T13:06:25.992Z,603
2018-06-01T13:07:25.952Z,633
2018-06-01T13:08:48.929Z,532
2018-06-01T13:09:48.699Z,615
2018-06-01T13:11:33.248Z,813
2018-06-01T13:12:34.326Z,681
2018-06-01T13:13:34.291Z,483
2018-06-01T13:14:34.536Z,740
2018-06-01T13:15:34.834Z,661
2018-06-01T13:16:33.958Z,481
2018-06-01T13:17:33.753Z,391
2018-06-01T13:18:33.888Z,396
2018-06-01T13:19:55.814Z,648
2018-06-01T13:20:56.339Z,458
2018-06-01T13:21:56.346Z,600
2018-06-01T13:23:20.068Z,353
2018-06-01T13:24:21.175Z,340
2018-06-01T13:25:22.451Z,334
2018-06-01T13:26:20.702Z,326
2018-06-01T13:27:21.688Z,307
2018-06-01T13:28:20.402Z,289
2018-06-01T13:29:44.159Z,266
2018-06-01T13:30:45.130Z,252
2018-06-01T13:31:45.744Z,244
2018-06-01T13:32:44.731Z,233
2018-06-01T13:33:44.483Z,227
2018-06-01T13:34:45.219Z,225
2018-06-01T13:35:46.107Z,224
2018-06-01T13:36:45.304Z,224
2018-06-01T13:37:45.068Z,229
2018-06-01T13:38:45.506Z,230
2018-06-01T13:39:44.535Z,235
2018-06-01T13:40:46.180Z,241
2018-06-01T13:41:45.241Z,252
2018-06-01T13:42:48.169Z,278
2018-06-01T13:43:45.943Z,266
2018-06-01T13:44:45.090Z,279
2018-06-01T13:46:07.958Z,314
2018-06-01T13:47:06.907Z,307
2018-06-01T13:48:07.255Z,316
2018-06-01T13:49:06.881Z,339
2018-06-01T13:50:07.247Z,339
2018-06-01T13:51:31.952Z,312
2018-06-01T13:52:31.818Z,310
2018-06-01T13:53:32.162Z,314
2018-06-01T13:54:33.432Z,321
2018-06-01T13:55:35.014Z,330
2018-06-01T13:56:31.713Z,341
2018-06-01T13:57:31.518Z,355
2018-06-01T13:58:53.505Z,397
2018-06-01T13:59:54.583Z,397
2018-06-01T14:00:59.623Z,427
2018-06-01T14:01:53.527Z,445
2018-06-01T14:02:55.459Z,487
2018-06-01T14:03:54.800Z,428
2018-06-01T14:04:54.518Z,407
2018-06-01T14:06:17.278Z,391
2018-06-01T14:07:17.602Z,399
2018-06-01T14:08:18.256Z,390
2018-06-01T14:09:17.272Z,477
2018-06-01T14:10:17.565Z,446
2018-06-01T14:11:38.230Z,465
2018-06-01T14:13:00.835Z,509
2018-06-01T14:14:01.854Z,635
2018-06-01T14:15:01.630Z,580
2018-06-01T14:16:01.402Z,677
2018-06-01T14:17:01.578Z,535
2018-06-01T14:18:24.673Z,474
2018-06-01T14:19:24.530Z,427
2018-06-01T14:20:25.577Z,532
2018-06-01T14:21:24.627Z,650
2018-06-01T14:22:48.267Z,614
2018-06-01T14:23:49.058Z,634
2018-06-01T14:24:49.356Z,613
2018-06-01T14:25:50.541Z,585
2018-06-01T14:26:55.111Z,449
2018-06-01T14:27:48.917Z,532
2018-06-01T14:28:50.473Z,460
2018-06-01T14:29:49.079Z,301
2018-06-01T14:30:49.396Z,276
2018-06-01T14:32:11.484Z,283
2018-06-01T14:33:15.199Z,383
2018-06-01T14:34:14.166Z,276
2018-06-01T14:39:16.366Z,265
2018-06-01T14:40:13.647Z,282
2018-06-01T14:40:56.245Z,322
2018-06-01T14:41:54.322Z,500
2018-06-01T14:42:54.627Z,482
2018-06-01T14:43:53.559Z,471
2018-06-01T14:44:54.267Z,466
2018-06-01T14:45:54.486Z,287
2018-06-01T14:46:53.658Z,473
2018-06-01T14:47:53.738Z,479
2018-06-01T14:48:53.784Z,463
2018-06-01T14:49:54.616Z,414
2018-06-01T14:50:53.974Z,403
2018-06-01T14:52:16.312Z,423
2018-06-01T14:53:16.030Z,430
2018-06-01T14:54:15.717Z,446
2018-06-01T14:55:16.623Z,469
2018-06-01T14:56:16.941Z,473
2018-06-01T14:57:15.918Z,466
2018-06-01T14:58:15.813Z,470
2018-06-01T14:59:16.208Z,465
2018-06-01T15:00:16.134Z,451
2018-06-01T15:01:16.251Z,445
2018-06-01T15:02:16.291Z,435
2018-06-01T15:03:15.989Z,449
2018-06-01T15:04:18.618Z,467
2018-06-01T15:05:16.651Z,467
2018-06-01T15:06:39.262Z,482
2018-06-01T15:07:40.213Z,469
2018-06-01T15:08:40.595Z,393
2018-06-01T15:09:39.252Z,361
2018-06-01T15:10:40.750Z,389
2018-06-01T15:11:39.623Z,388
2018-06-01T15:12:39.766Z,407
2018-06-01T15:13:40.726Z,354
2018-06-01T15:14:39.499Z,405
2018-06-01T15:15:40.331Z,393
2018-06-01T15:16:40.505Z,384
2018-06-01T15:18:01.204Z,372
2018-06-01T15:19:01.649Z,368
2018-06-01T15:20:02.441Z,350
2018-06-01T15:21:00.972Z,353
2018-06-01T15:22:01.837Z,329
2018-06-01T15:23:01.470Z,299
2018-06-01T15:24:01.332Z,274
2018-06-01T15:25:02.353Z,283
2018-06-01T15:26:01.140Z,281
2018-06-01T15:27:01.614Z,288
2018-06-01T15:28:01.531Z,319
2018-06-01T15:29:02.586Z,300
2018-06-01T15:30:01.852Z,287
2018-06-01T15:31:03.068Z,286
2018-06-01T15:32:02.715Z,287
2018-06-01T15:33:02.853Z,279
2018-06-01T15:34:02.409Z,277
2018-06-01T15:35:02.074Z,275
2018-06-01T15:36:01.506Z,280
2018-06-01T15:37:03.672Z,282
2018-06-01T15:38:01.410Z,264
2018-06-01T15:39:01.565Z,268
2018-06-01T15:40:01.607Z,240
2018-06-01T15:41:25.186Z,235
2018-06-01T15:42:47.672Z,208
2018-06-01T15:43:48.595Z,194
2018-06-01T15:44:47.370Z,185
2018-06-01T15:46:09.137Z,177
2018-06-01T15:47:33.562Z,185
2018-06-01T15:48:54.253Z,204
2018-06-01T15:49:54.641Z,193
2018-06-01T15:50:55.474Z,180
2018-06-01T15:51:55.257Z,188
2018-06-01T15:52:54.032Z,184
2018-06-01T15:53:54.401Z,179
2018-06-01T15:54:54.792Z,193
2018-06-01T15:55:54.940Z,188
2018-06-01T15:56:55.104Z,185
2018-06-01T15:57:53.844Z,182
2018-06-01T15:58:54.703Z,193
2018-06-01T15:59:55.196Z,186
2018-06-01T16:00:54.083Z,166
2018-06-01T16:01:54.692Z,162
2018-06-01T16:02:54.341Z,159
2018-06-01T16:04:15.916Z,165
2018-06-01T16:05:16.727Z,163
2018-06-01T16:06:16.524Z,151
2018-06-01T16:07:16.639Z,133
2018-06-01T16:08:16.703Z,117
2018-06-01T16:09:16.669Z,108
2018-06-01T16:10:16.955Z,103
2018-06-01T16:11:19.640Z,98
2018-06-01T16:12:16.569Z,93
2018-06-01T16:13:17.866Z,87